Aviation Digital Data Service (ADDS)

Output produced by METARs form (0425 UTC 24 September 2014)
found at http://www.aviationweather.gov/adds/metars/
 
KCRQ 240353Z 33003KT 10SM CLR 21/19 A2990 RMK AO2 SLP121 T02110189
KCRQ 240253Z 00000KT 10SM CLR 22/19 A2989 RMK AO2 SLP118 T02170189 53004
KCRQ 240153Z 26004KT 10SM CLR 22/18 A2988 RMK AO2 SLP115 T02170183
KCRQ 240053Z 26006KT 10SM CLR 23/18 A2988 RMK AO2 SLP115 T02280183
KCRQ 232328Z 2400/2424 VRB04KT P6SM FEW006 
     FM240600 VRB04KT 4SM BR BKN005 
     FM240900 VRB04KT 1/2SM FG BKN002 
     FM241600 VRB04KT 5SM BR SCT005 
     FM241800 27007KT P6SM SKC